sensor_id;sensor_type;location;lat;lon;timestamp;P1;durP1;ratioP1;P2;durP2;ratioP2
33579;SDS011;19909;43.644;-79.438;2022-09-20T00:01:04;1.40;;;1.30;;
33579;SDS011;19909;43.644;-79.438;2022-09-20T00:03:42;2.13;;;1.10;;
33579;SDS011;19909;43.644;-79.438;2022-09-20T00:06:10;1.20;;;1.10;;
33579;SDS011;19909;43.644;-79.438;2022-09-20T00:08:38;1.00;;;0.90;;
33579;SDS011;19909;43.644;-79.438;2022-09-20T00:11:06;1.35;;;0.93;;
33579;SDS011;19909;43.644;-79.438;2022-09-20T00:13:37;1.20;;;1.10;;
33579;SDS011;19909;43.644;-79.438;2022-09-20T00:16:14;1.88;;;0.90;;
33579;SDS011;19909;43.644;-79.438;2022-09-20T00:18:42;0.85;;;0.82;;
33579;SDS011;19909;43.644;-79.438;2022-09-20T00:21:15;1.15;;;1.00;;
33579;SDS011;19909;43.644;-79.438;2022-09-20T00:23:44;1.30;;;0.93;;
33579;SDS011;19909;43.644;-79.438;2022-09-20T00:26:11;1.40;;;1.30;;
33579;SDS011;19909;43.644;-79.438;2022-09-20T00:28:38;1.10;;;0.93;;
33579;SDS011;19909;43.644;-79.438;2022-09-20T00:31:05;1.08;;;0.95;;
33579;SDS011;19909;43.644;-79.438;2022-09-20T00:33:32;0.93;;;0.85;;
33579;SDS011;19909;43.644;-79.438;2022-09-20T00:36:16;1.33;;;0.93;;
33579;SDS011;19909;43.644;-79.438;2022-09-20T00:38:42;1.05;;;0.95;;
33579;SDS011;19909;43.644;-79.438;2022-09-20T00:41:09;0.90;;;0.90;;
33579;SDS011;19909;43.644;-79.438;2022-09-20T00:43:39;1.13;;;1.02;;
33579;SDS011;19909;43.644;-79.438;2022-09-20T00:46:22;1.20;;;0.80;;
33579;SDS011;19909;43.644;-79.438;2022-09-20T00:48:53;0.88;;;0.88;;
33579;SDS011;19909;43.644;-79.438;2022-09-20T00:51:27;1.30;;;0.82;;
33579;SDS011;19909;43.644;-79.438;2022-09-20T00:53:55;0.93;;;0.85;;
33579;SDS011;19909;43.644;-79.438;2022-09-20T00:56:31;2.72;;;1.00;;
33579;SDS011;19909;43.644;-79.438;2022-09-20T01:01:26;0.80;;;0.80;;
33579;SDS011;19909;43.644;-79.438;2022-09-20T01:03:53;0.70;;;0.68;;
33579;SDS011;19909;43.644;-79.438;2022-09-20T01:06:19;0.93;;;0.80;;
33579;SDS011;19909;43.644;-79.438;2022-09-20T01:08:47;1.70;;;1.00;;
33579;SDS011;19909;43.644;-79.438;2022-09-20T01:11:16;1.58;;;0.95;;
33579;SDS011;19909;43.644;-79.438;2022-09-20T01:13:42;1.10;;;1.00;;
33579;SDS011;19909;43.644;-79.438;2022-09-20T01:16:08;0.88;;;0.70;;
33579;SDS011;19909;43.644;-79.438;2022-09-20T01:18:36;0.75;;;0.70;;
33579;SDS011;19909;43.644;-79.438;2022-09-20T01:21:03;1.90;;;0.85;;
33579;SDS011;19909;43.644;-79.438;2022-09-20T01:23:49;0.80;;;0.80;;
33579;SDS011;19909;43.644;-79.438;2022-09-20T01:29:16;1.33;;;0.95;;
33579;SDS011;19909;43.644;-79.438;2022-09-20T01:32:00;2.75;;;0.75;;
33579;SDS011;19909;43.644;-79.438;2022-09-20T01:42:22;0.95;;;0.85;;
33579;SDS011;19909;43.644;-79.438;2022-09-20T01:45:29;1.10;;;0.80;;
33579;SDS011;19909;43.644;-79.438;2022-09-20T02:05:08;0.75;;;0.65;;
33579;SDS011;19909;43.644;-79.438;2022-09-20T02:16:31;0.77;;;0.77;;
33579;SDS011;19909;43.644;-79.438;2022-09-20T02:32:48;0.80;;;0.80;;
33579;SDS011;19909;43.644;-79.438;2022-09-20T02:35:41;1.10;;;0.90;;
33579;SDS011;19909;43.644;-79.438;2022-09-20T02:38:47;0.80;;;0.80;;
33579;SDS011;19909;43.644;-79.438;2022-09-20T02:44:12;1.05;;;0.80;;
33579;SDS011;19909;43.644;-79.438;2022-09-20T02:49:49;0.80;;;0.75;;
33579;SDS011;19909;43.644;-79.438;2022-09-20T03:14:36;1.50;;;1.00;;
33579;SDS011;19909;43.644;-79.438;2022-09-20T03:19:45;0.75;;;0.75;;
33579;SDS011;19909;43.644;-79.438;2022-09-20T03:25:14;1.25;;;1.00;;
33579;SDS011;19909;43.644;-79.438;2022-09-20T03:33:00;1.00;;;0.90;;
33579;SDS011;19909;43.644;-79.438;2022-09-20T03:35:57;1.27;;;0.93;;
33579;SDS011;19909;43.644;-79.438;2022-09-20T03:46:44;1.40;;;1.30;;
33579;SDS011;19909;43.644;-79.438;2022-09-20T03:52:19;1.17;;;1.00;;
33579;SDS011;19909;43.644;-79.438;2022-09-20T03:58:06;1.05;;;0.90;;
33579;SDS011;19909;43.644;-79.438;2022-09-20T04:09:03;0.95;;;0.85;;
33579;SDS011;19909;43.644;-79.438;2022-09-20T04:14:32;1.00;;;0.90;;
33579;SDS011;19909;43.644;-79.438;2022-09-20T04:22:37;0.85;;;0.73;;
33579;SDS011;19909;43.644;-79.438;2022-09-20T04:25:12;0.90;;;0.90;;
33579;SDS011;19909;43.644;-79.438;2022-09-20T04:27:48;2.08;;;1.00;;
33579;SDS011;19909;43.644;-79.438;2022-09-20T04:30:29;1.05;;;0.90;;
33579;SDS011;19909;43.644;-79.438;2022-09-20T04:35:49;1.10;;;1.00;;
33579;SDS011;19909;43.644;-79.438;2022-09-20T05:02:50;1.10;;;0.98;;
33579;SDS011;19909;43.644;-79.438;2022-09-20T05:14:06;0.70;;;0.70;;
33579;SDS011;19909;43.644;-79.438;2022-09-20T05:16:54;1.20;;;0.85;;
33579;SDS011;19909;43.644;-79.438;2022-09-20T05:33:56;2.33;;;1.08;;
33579;SDS011;19909;43.644;-79.438;2022-09-20T05:39:26;1.35;;;1.08;;
33579;SDS011;19909;43.644;-79.438;2022-09-20T05:47:54;1.20;;;0.90;;
33579;SDS011;19909;43.644;-79.438;2022-09-20T05:53:28;1.13;;;1.02;;
33579;SDS011;19909;43.644;-79.438;2022-09-20T05:56:21;1.10;;;1.00;;
33579;SDS011;19909;43.644;-79.438;2022-09-20T06:04:28;1.20;;;1.10;;
33579;SDS011;19909;43.644;-79.438;2022-09-20T06:07:23;1.38;;;1.00;;
33579;SDS011;19909;43.644;-79.438;2022-09-20T06:15:42;2.05;;;0.90;;
33579;SDS011;19909;43.644;-79.438;2022-09-20T06:23:59;1.15;;;1.05;;
33579;SDS011;19909;43.644;-79.438;2022-09-20T06:26:29;0.80;;;0.80;;
33579;SDS011;19909;43.644;-79.438;2022-09-20T06:29:05;1.30;;;1.20;;
33579;SDS011;19909;43.644;-79.438;2022-09-20T06:31:37;0.80;;;0.80;;
33579;SDS011;19909;43.644;-79.438;2022-09-20T06:34:09;2.97;;;1.15;;
33579;SDS011;19909;43.644;-79.438;2022-09-20T06:36:40;1.17;;;1.08;;
33579;SDS011;19909;43.644;-79.438;2022-09-20T06:39:33;1.13;;;1.02;;
33579;SDS011;19909;43.644;-79.438;2022-09-20T06:42:21;1.13;;;1.02;;
33579;SDS011;19909;43.644;-79.438;2022-09-20T06:44:47;0.77;;;0.77;;
33579;SDS011;19909;43.644;-79.438;2022-09-20T06:47:14;0.90;;;0.90;;
33579;SDS011;19909;43.644;-79.438;2022-09-20T06:49:41;0.82;;;0.82;;
33579;SDS011;19909;43.644;-79.438;2022-09-20T06:52:11;3.05;;;1.20;;
33579;SDS011;19909;43.644;-79.438;2022-09-20T06:54:41;0.90;;;0.90;;
33579;SDS011;19909;43.644;-79.438;2022-09-20T06:57:10;1.48;;;1.20;;
33579;SDS011;19909;43.644;-79.438;2022-09-20T06:59:42;1.20;;;1.10;;
33579;SDS011;19909;43.644;-79.438;2022-09-20T07:02:09;1.20;;;0.95;;
33579;SDS011;19909;43.644;-79.438;2022-09-20T07:04:36;1.00;;;0.90;;
33579;SDS011;19909;43.644;-79.438;2022-09-20T07:07:04;0.85;;;0.85;;
33579;SDS011;19909;43.644;-79.438;2022-09-20T07:09:31;1.30;;;1.17;;
33579;SDS011;19909;43.644;-79.438;2022-09-20T07:11:58;2.90;;;1.10;;
33579;SDS011;19909;43.644;-79.438;2022-09-20T07:14:24;2.67;;;1.00;;
33579;SDS011;19909;43.644;-79.438;2022-09-20T07:16:52;2.15;;;1.50;;
33579;SDS011;19909;43.644;-79.438;2022-09-20T07:19:19;2.20;;;1.05;;
33579;SDS011;19909;43.644;-79.438;2022-09-20T07:21:46;1.25;;;1.15;;
33579;SDS011;19909;43.644;-79.438;2022-09-20T07:24:13;1.33;;;1.23;;
33579;SDS011;19909;43.644;-79.438;2022-09-20T07:26:52;1.40;;;1.00;;
33579;SDS011;19909;43.644;-79.438;2022-09-20T07:29:24;0.85;;;0.85;;
33579;SDS011;19909;43.644;-79.438;2022-09-20T07:31:51;1.65;;;1.00;;
33579;SDS011;19909;43.644;-79.438;2022-09-20T07:34:17;1.20;;;1.10;;
33579;SDS011;19909;43.644;-79.438;2022-09-20T07:36:45;0.95;;;0.82;;
33579;SDS011;19909;43.644;-79.438;2022-09-20T07:39:12;1.25;;;1.15;;
33579;SDS011;19909;43.644;-79.438;2022-09-20T07:41:38;1.63;;;1.10;;
33579;SDS011;19909;43.644;-79.438;2022-09-20T07:44:04;1.55;;;1.10;;
33579;SDS011;19909;43.644;-79.438;2022-09-20T07:46:46;1.23;;;1.10;;
33579;SDS011;19909;43.644;-79.438;2022-09-20T07:49:13;1.23;;;1.13;;
33579;SDS011;19909;43.644;-79.438;2022-09-20T07:51:39;1.02;;;0.93;;
33579;SDS011;19909;43.644;-79.438;2022-09-20T07:54:05;1.08;;;0.98;;
33579;SDS011;19909;43.644;-79.438;2022-09-20T07:56:32;1.10;;;1.00;;
33579;SDS011;19909;43.644;-79.438;2022-09-20T07:58:58;1.13;;;1.02;;
33579;SDS011;19909;43.644;-79.438;2022-09-20T08:01:25;1.90;;;1.40;;
33579;SDS011;19909;43.644;-79.438;2022-09-20T08:03:51;1.80;;;1.13;;
33579;SDS011;19909;43.644;-79.438;2022-09-20T08:06:19;1.40;;;1.05;;
33579;SDS011;19909;43.644;-79.438;2022-09-20T08:08:46;1.27;;;1.17;;
33579;SDS011;19909;43.644;-79.438;2022-09-20T08:11:13;1.60;;;1.00;;
33579;SDS011;19909;43.644;-79.438;2022-09-20T08:13:45;1.60;;;1.50;;
33579;SDS011;19909;43.644;-79.438;2022-09-20T08:16:16;1.10;;;1.00;;
33579;SDS011;19909;43.644;-79.438;2022-09-20T08:21:17;1.33;;;1.23;;
33579;SDS011;19909;43.644;-79.438;2022-09-20T08:23:44;1.45;;;1.35;;
33579;SDS011;19909;43.644;-79.438;2022-09-20T08:26:19;1.13;;;1.02;;
33579;SDS011;19909;43.644;-79.438;2022-09-20T08:28:52;2.63;;;1.55;;
33579;SDS011;19909;43.644;-79.438;2022-09-20T08:31:21;1.50;;;1.40;;
33579;SDS011;19909;43.644;-79.438;2022-09-20T08:33:50;1.55;;;1.17;;
33579;SDS011;19909;43.644;-79.438;2022-09-20T08:36:21;1.83;;;1.38;;
33579;SDS011;19909;43.644;-79.438;2022-09-20T08:38:50;2.03;;;1.13;;
33579;SDS011;19909;43.644;-79.438;2022-09-20T08:43:51;1.20;;;1.10;;
33579;SDS011;19909;43.644;-79.438;2022-09-20T08:46:20;1.38;;;1.17;;
33579;SDS011;19909;43.644;-79.438;2022-09-20T08:48:51;1.25;;;1.15;;
33579;SDS011;19909;43.644;-79.438;2022-09-20T08:51:17;1.85;;;1.55;;
33579;SDS011;19909;43.644;-79.438;2022-09-20T08:53:49;1.20;;;1.10;;
33579;SDS011;19909;43.644;-79.438;2022-09-20T08:56:17;1.42;;;1.20;;
33579;SDS011;19909;43.644;-79.438;2022-09-20T08:58:44;1.50;;;1.40;;
33579;SDS011;19909;43.644;-79.438;2022-09-20T09:01:13;1.50;;;1.10;;
33579;SDS011;19909;43.644;-79.438;2022-09-20T09:03:44;1.40;;;1.30;;
33579;SDS011;19909;43.644;-79.438;2022-09-20T09:06:12;1.30;;;1.20;;
33579;SDS011;19909;43.644;-79.438;2022-09-20T09:08:41;1.27;;;1.00;;
33579;SDS011;19909;43.644;-79.438;2022-09-20T09:11:12;2.10;;;1.17;;
33579;SDS011;19909;43.644;-79.438;2022-09-20T09:13:58;1.30;;;1.20;;
33579;SDS011;19909;43.644;-79.438;2022-09-20T09:17:10;1.20;;;1.10;;
33579;SDS011;19909;43.644;-79.438;2022-09-20T09:19:45;1.15;;;1.05;;
33579;SDS011;19909;43.644;-79.438;2022-09-20T09:22:17;1.35;;;1.25;;
33579;SDS011;19909;43.644;-79.438;2022-09-20T09:27:54;1.25;;;1.15;;
33579;SDS011;19909;43.644;-79.438;2022-09-20T09:35:40;1.25;;;1.15;;
33579;SDS011;19909;43.644;-79.438;2022-09-20T09:38:08;1.58;;;1.10;;
33579;SDS011;19909;43.644;-79.438;2022-09-20T09:40:50;2.00;;;1.20;;
33579;SDS011;19909;43.644;-79.438;2022-09-20T09:43:20;4.20;;;1.75;;
33579;SDS011;19909;43.644;-79.438;2022-09-20T09:45:51;1.08;;;0.93;;
33579;SDS011;19909;43.644;-79.438;2022-09-20T09:48:19;1.30;;;1.20;;
33579;SDS011;19909;43.644;-79.438;2022-09-20T09:51:08;1.30;;;1.20;;
33579;SDS011;19909;43.644;-79.438;2022-09-20T09:53:36;1.27;;;1.17;;
33579;SDS011;19909;43.644;-79.438;2022-09-20T10:01:28;1.40;;;1.30;;
33579;SDS011;19909;43.644;-79.438;2022-09-20T10:09:28;2.28;;;1.15;;
33579;SDS011;19909;43.644;-79.438;2022-09-20T10:15:08;1.33;;;1.20;;
33579;SDS011;19909;43.644;-79.438;2022-09-20T10:23:01;1.50;;;1.10;;
33579;SDS011;19909;43.644;-79.438;2022-09-20T10:29:07;1.35;;;1.20;;
33579;SDS011;19909;43.644;-79.438;2022-09-20T10:39:17;1.60;;;1.50;;
33579;SDS011;19909;43.644;-79.438;2022-09-20T10:41:55;1.60;;;1.50;;
33579;SDS011;19909;43.644;-79.438;2022-09-20T10:44:54;1.30;;;1.20;;
33579;SDS011;19909;43.644;-79.438;2022-09-20T10:47:33;1.30;;;1.20;;
33579;SDS011;19909;43.644;-79.438;2022-09-20T10:53:17;1.42;;;1.33;;
33579;SDS011;19909;43.644;-79.438;2022-09-20T11:09:54;1.30;;;1.10;;
33579;SDS011;19909;43.644;-79.438;2022-09-20T11:12:32;1.27;;;1.17;;
33579;SDS011;19909;43.644;-79.438;2022-09-20T11:15:39;1.42;;;1.30;;
33579;SDS011;19909;43.644;-79.438;2022-09-20T11:18:11;0.90;;;0.90;;
33579;SDS011;19909;43.644;-79.438;2022-09-20T11:20:52;1.17;;;1.10;;
33579;SDS011;19909;43.644;-79.438;2022-09-20T11:26:41;1.50;;;1.35;;
33579;SDS011;19909;43.644;-79.438;2022-09-20T11:29:29;1.13;;;1.02;;
33579;SDS011;19909;43.644;-79.438;2022-09-20T11:32:05;1.67;;;1.30;;
33579;SDS011;19909;43.644;-79.438;2022-09-20T11:37:43;1.15;;;1.05;;
33579;SDS011;19909;43.644;-79.438;2022-09-20T11:40:26;1.15;;;1.05;;
33579;SDS011;19909;43.644;-79.438;2022-09-20T11:42:56;1.58;;;1.08;;
33579;SDS011;19909;43.644;-79.438;2022-09-20T11:45:25;2.58;;;1.05;;
33579;SDS011;19909;43.644;-79.438;2022-09-20T11:47:55;2.53;;;1.10;;
33579;SDS011;19909;43.644;-79.438;2022-09-20T11:56:21;1.95;;;1.30;;
33579;SDS011;19909;43.644;-79.438;2022-09-20T11:59:00;1.50;;;1.30;;
33579;SDS011;19909;43.644;-79.438;2022-09-20T12:01:37;1.55;;;1.15;;
33579;SDS011;19909;43.644;-79.438;2022-09-20T12:04:06;1.20;;;1.10;;
33579;SDS011;19909;43.644;-79.438;2022-09-20T12:06:39;1.27;;;1.17;;
33579;SDS011;19909;43.644;-79.438;2022-09-20T12:09:21;1.17;;;1.08;;
33579;SDS011;19909;43.644;-79.438;2022-09-20T12:11:55;1.10;;;1.00;;
33579;SDS011;19909;43.644;-79.438;2022-09-20T12:14:24;2.63;;;0.80;;
33579;SDS011;19909;43.644;-79.438;2022-09-20T12:16:52;1.67;;;1.10;;
33579;SDS011;19909;43.644;-79.438;2022-09-20T12:24:26;1.23;;;0.98;;
33579;SDS011;19909;43.644;-79.438;2022-09-20T12:26:58;1.15;;;1.02;;
33579;SDS011;19909;43.644;-79.438;2022-09-20T12:31:54;1.85;;;1.40;;
33579;SDS011;19909;43.644;-79.438;2022-09-20T12:34:40;1.38;;;0.90;;
33579;SDS011;19909;43.644;-79.438;2022-09-20T12:39:37;1.30;;;1.20;;
33579;SDS011;19909;43.644;-79.438;2022-09-20T12:47:28;0.90;;;0.80;;
33579;SDS011;19909;43.644;-79.438;2022-09-20T12:49:58;1.00;;;0.90;;
33579;SDS011;19909;43.644;-79.438;2022-09-20T13:00:44;1.27;;;1.10;;
33579;SDS011;19909;43.644;-79.438;2022-09-20T13:14:27;1.02;;;0.80;;
33579;SDS011;19909;43.644;-79.438;2022-09-20T13:19:44;0.90;;;0.82;;
33579;SDS011;19909;43.644;-79.438;2022-09-20T13:27:15;0.98;;;0.80;;
33579;SDS011;19909;43.644;-79.438;2022-09-20T13:29:45;1.38;;;1.13;;
33579;SDS011;19909;43.644;-79.438;2022-09-20T13:35:05;1.20;;;0.93;;
33579;SDS011;19909;43.644;-79.438;2022-09-20T13:40:36;1.00;;;0.80;;
33579;SDS011;19909;43.644;-79.438;2022-09-20T13:45:55;1.60;;;0.70;;
33579;SDS011;19909;43.644;-79.438;2022-09-20T13:48:26;1.63;;;0.70;;
33579;SDS011;19909;43.644;-79.438;2022-09-20T13:50:55;1.27;;;0.73;;
33579;SDS011;19909;43.644;-79.438;2022-09-20T13:53:22;0.95;;;0.70;;
33579;SDS011;19909;43.644;-79.438;2022-09-20T13:55:50;0.80;;;0.80;;
33579;SDS011;19909;43.644;-79.438;2022-09-20T13:58:27;1.10;;;0.88;;
33579;SDS011;19909;43.644;-79.438;2022-09-20T14:00:59;1.73;;;0.90;;
33579;SDS011;19909;43.644;-79.438;2022-09-20T14:03:27;1.95;;;0.60;;
33579;SDS011;19909;43.644;-79.438;2022-09-20T14:06:00;0.80;;;0.73;;
33579;SDS011;19909;43.644;-79.438;2022-09-20T14:08:47;1.15;;;0.80;;
33579;SDS011;19909;43.644;-79.438;2022-09-20T14:11:16;1.00;;;0.90;;
33579;SDS011;19909;43.644;-79.438;2022-09-20T14:13:45;1.58;;;0.77;;
33579;SDS011;19909;43.644;-79.438;2022-09-20T14:16:14;0.60;;;0.60;;
33579;SDS011;19909;43.644;-79.438;2022-09-20T14:18:43;0.93;;;0.70;;
33579;SDS011;19909;43.644;-79.438;2022-09-20T14:21:12;0.88;;;0.60;;
33579;SDS011;19909;43.644;-79.438;2022-09-20T14:23:49;0.70;;;0.63;;
33579;SDS011;19909;43.644;-79.438;2022-09-20T14:31:19;2.10;;;0.98;;
33579;SDS011;19909;43.644;-79.438;2022-09-20T14:33:48;3.17;;;0.77;;
33579;SDS011;19909;43.644;-79.438;2022-09-20T14:36:20;1.27;;;0.88;;
33579;SDS011;19909;43.644;-79.438;2022-09-20T14:38:56;4.28;;;1.00;;
33579;SDS011;19909;43.644;-79.438;2022-09-20T14:43:59;1.10;;;0.95;;
33579;SDS011;19909;43.644;-79.438;2022-09-20T14:46:33;0.68;;;0.63;;
33579;SDS011;19909;43.644;-79.438;2022-09-20T14:54:33;0.60;;;0.60;;
33579;SDS011;19909;43.644;-79.438;2022-09-20T14:57:00;1.90;;;0.90;;
33579;SDS011;19909;43.644;-79.438;2022-09-20T14:59:27;2.28;;;0.80;;
33579;SDS011;19909;43.644;-79.438;2022-09-20T15:04:29;1.13;;;0.80;;
33579;SDS011;19909;43.644;-79.438;2022-09-20T15:07:00;1.48;;;0.90;;
33579;SDS011;19909;43.644;-79.438;2022-09-20T15:09:32;1.33;;;0.77;;
33579;SDS011;19909;43.644;-79.438;2022-09-20T15:12:03;4.05;;;0.70;;
33579;SDS011;19909;43.644;-79.438;2022-09-20T15:14:31;2.30;;;1.03;;
33579;SDS011;19909;43.644;-79.438;2022-09-20T15:16:57;1.45;;;0.80;;
33579;SDS011;19909;43.644;-79.438;2022-09-20T15:19:27;2.15;;;0.82;;
33579;SDS011;19909;43.644;-79.438;2022-09-20T15:21:54;2.15;;;0.70;;
33579;SDS011;19909;43.644;-79.438;2022-09-20T15:24:21;1.50;;;0.90;;
33579;SDS011;19909;43.644;-79.438;2022-09-20T15:26:47;1.00;;;0.63;;
33579;SDS011;19909;43.644;-79.438;2022-09-20T15:29:14;1.70;;;0.70;;
33579;SDS011;19909;43.644;-79.438;2022-09-20T15:31:42;1.15;;;0.70;;
33579;SDS011;19909;43.644;-79.438;2022-09-20T15:34:10;1.45;;;0.90;;
33579;SDS011;19909;43.644;-79.438;2022-09-20T15:36:40;1.65;;;0.90;;
33579;SDS011;19909;43.644;-79.438;2022-09-20T15:39:06;1.30;;;0.90;;
33579;SDS011;19909;43.644;-79.438;2022-09-20T15:41:33;2.25;;;0.95;;
33579;SDS011;19909;43.644;-79.438;2022-09-20T15:44:00;1.10;;;0.75;;
33579;SDS011;19909;43.644;-79.438;2022-09-20T15:46:27;1.75;;;0.70;;
33579;SDS011;19909;43.644;-79.438;2022-09-20T15:48:55;1.48;;;0.77;;
33579;SDS011;19909;43.644;-79.438;2022-09-20T15:51:23;1.20;;;0.60;;
33579;SDS011;19909;43.644;-79.438;2022-09-20T15:53:54;1.40;;;0.80;;
33579;SDS011;19909;43.644;-79.438;2022-09-20T15:56:28;0.75;;;0.50;;
33579;SDS011;19909;43.644;-79.438;2022-09-20T15:58:57;1.15;;;0.60;;
33579;SDS011;19909;43.644;-79.438;2022-09-20T16:01:40;1.55;;;0.73;;
33579;SDS011;19909;43.644;-79.438;2022-09-20T16:04:10;3.63;;;0.80;;
33579;SDS011;19909;43.644;-79.438;2022-09-20T16:06:39;3.83;;;0.98;;
33579;SDS011;19909;43.644;-79.438;2022-09-20T16:09:06;1.75;;;0.95;;
33579;SDS011;19909;43.644;-79.438;2022-09-20T16:11:33;1.70;;;1.02;;
33579;SDS011;19909;43.644;-79.438;2022-09-20T16:14:00;2.78;;;0.90;;
33579;SDS011;19909;43.644;-79.438;2022-09-20T16:16:28;2.42;;;0.90;;
33579;SDS011;19909;43.644;-79.438;2022-09-20T16:18:55;3.00;;;0.80;;
33579;SDS011;19909;43.644;-79.438;2022-09-20T16:21:40;1.70;;;1.05;;
33579;SDS011;19909;43.644;-79.438;2022-09-20T16:24:07;1.55;;;0.80;;
33579;SDS011;19909;43.644;-79.438;2022-09-20T16:26:34;1.17;;;0.73;;
33579;SDS011;19909;43.644;-79.438;2022-09-20T16:29:01;0.90;;;0.52;;
33579;SDS011;19909;43.644;-79.438;2022-09-20T16:31:36;1.85;;;0.77;;
33579;SDS011;19909;43.644;-79.438;2022-09-20T16:36:44;0.50;;;0.40;;
33579;SDS011;19909;43.644;-79.438;2022-09-20T16:39:15;1.73;;;0.77;;
33579;SDS011;19909;43.644;-79.438;2022-09-20T16:41:44;1.55;;;0.68;;
33579;SDS011;19909;43.644;-79.438;2022-09-20T16:44:12;0.82;;;0.43;;
33579;SDS011;19909;43.644;-79.438;2022-09-20T16:46:39;2.60;;;0.52;;
33579;SDS011;19909;43.644;-79.438;2022-09-20T16:49:06;0.75;;;0.50;;
33579;SDS011;19909;43.644;-79.438;2022-09-20T16:51:37;1.83;;;0.70;;
33579;SDS011;19909;43.644;-79.438;2022-09-20T16:54:06;1.63;;;0.75;;
33579;SDS011;19909;43.644;-79.438;2022-09-20T16:56:41;1.20;;;0.60;;
33579;SDS011;19909;43.644;-79.438;2022-09-20T16:59:09;2.08;;;0.60;;
33579;SDS011;19909;43.644;-79.438;2022-09-20T17:01:37;1.27;;;0.63;;
33579;SDS011;19909;43.644;-79.438;2022-09-20T17:04:04;1.23;;;0.65;;
33579;SDS011;19909;43.644;-79.438;2022-09-20T17:06:31;0.95;;;0.50;;
33579;SDS011;19909;43.644;-79.438;2022-09-20T17:08:59;1.23;;;0.60;;
33579;SDS011;19909;43.644;-79.438;2022-09-20T17:11:26;2.10;;;0.60;;
33579;SDS011;19909;43.644;-79.438;2022-09-20T17:13:54;1.05;;;0.70;;
33579;SDS011;19909;43.644;-79.438;2022-09-20T17:16:22;1.27;;;0.70;;
33579;SDS011;19909;43.644;-79.438;2022-09-20T17:18:51;1.48;;;0.73;;
33579;SDS011;19909;43.644;-79.438;2022-09-20T17:21:23;0.95;;;0.50;;
33579;SDS011;19909;43.644;-79.438;2022-09-20T17:23:51;0.80;;;0.60;;
33579;SDS011;19909;43.644;-79.438;2022-09-20T17:26:21;0.95;;;0.60;;
33579;SDS011;19909;43.644;-79.438;2022-09-20T17:28:53;1.98;;;0.73;;
33579;SDS011;19909;43.644;-79.438;2022-09-20T17:31:21;1.65;;;0.80;;
33579;SDS011;19909;43.644;-79.438;2022-09-20T17:33:50;2.65;;;0.50;;
33579;SDS011;19909;43.644;-79.438;2022-09-20T17:36:17;3.25;;;0.80;;
33579;SDS011;19909;43.644;-79.438;2022-09-20T17:38:46;1.33;;;0.93;;
33579;SDS011;19909;43.644;-79.438;2022-09-20T17:41:17;2.17;;;0.67;;
33579;SDS011;19909;43.644;-79.438;2022-09-20T17:43:45;1.17;;;0.63;;
33579;SDS011;19909;43.644;-79.438;2022-09-20T17:46:13;1.55;;;0.70;;
33579;SDS011;19909;43.644;-79.438;2022-09-20T17:48:42;0.77;;;0.47;;
33579;SDS011;19909;43.644;-79.438;2022-09-20T17:51:14;0.82;;;0.47;;
33579;SDS011;19909;43.644;-79.438;2022-09-20T17:53:42;1.85;;;0.60;;
33579;SDS011;19909;43.644;-79.438;2022-09-20T17:56:09;1.15;;;0.45;;
33579;SDS011;19909;43.644;-79.438;2022-09-20T17:58:39;1.00;;;0.60;;
33579;SDS011;19909;43.644;-79.438;2022-09-20T18:01:07;1.15;;;0.52;;
33579;SDS011;19909;43.644;-79.438;2022-09-20T18:03:36;1.80;;;0.88;;
33579;SDS011;19909;43.644;-79.438;2022-09-20T18:06:10;2.53;;;0.73;;
33579;SDS011;19909;43.644;-79.438;2022-09-20T18:08:45;1.67;;;0.50;;
33579;SDS011;19909;43.644;-79.438;2022-09-20T18:11:13;1.20;;;0.73;;
33579;SDS011;19909;43.644;-79.438;2022-09-20T18:13:41;0.88;;;0.55;;
33579;SDS011;19909;43.644;-79.438;2022-09-20T18:16:08;1.10;;;0.60;;
33579;SDS011;19909;43.644;-79.438;2022-09-20T18:18:35;1.00;;;0.50;;
33579;SDS011;19909;43.644;-79.438;2022-09-20T18:21:36;0.70;;;0.50;;
33579;SDS011;19909;43.644;-79.438;2022-09-20T18:23:55;0.82;;;0.52;;
33579;SDS011;19909;43.644;-79.438;2022-09-20T18:26:23;0.90;;;0.50;;
33579;SDS011;19909;43.644;-79.438;2022-09-20T18:31:22;0.40;;;0.40;;
33579;SDS011;19909;43.644;-79.438;2022-09-20T18:33:51;0.65;;;0.65;;
33579;SDS011;19909;43.644;-79.438;2022-09-20T18:36:21;0.88;;;0.60;;
33579;SDS011;19909;43.644;-79.438;2022-09-20T18:38:50;1.75;;;0.50;;
33579;SDS011;19909;43.644;-79.438;2022-09-20T18:41:22;0.57;;;0.40;;
33579;SDS011;19909;43.644;-79.438;2022-09-20T18:43:50;1.45;;;0.80;;
33579;SDS011;19909;43.644;-79.438;2022-09-20T18:46:17;1.23;;;0.90;;
33579;SDS011;19909;43.644;-79.438;2022-09-20T18:48:52;0.60;;;0.40;;
33579;SDS011;19909;43.644;-79.438;2022-09-20T18:51:20;0.70;;;0.40;;
33579;SDS011;19909;43.644;-79.438;2022-09-20T18:53:48;2.17;;;0.75;;
33579;SDS011;19909;43.644;-79.438;2022-09-20T18:56:25;1.25;;;0.73;;
33579;SDS011;19909;43.644;-79.438;2022-09-20T18:58:54;0.90;;;0.70;;
33579;SDS011;19909;43.644;-79.438;2022-09-20T19:04:18;0.85;;;0.55;;
33579;SDS011;19909;43.644;-79.438;2022-09-20T19:18:41;1.10;;;0.70;;
33579;SDS011;19909;43.644;-79.438;2022-09-20T19:27:01;0.60;;;0.60;;
33579;SDS011;19909;43.644;-79.438;2022-09-20T19:29:27;0.75;;;0.60;;
33579;SDS011;19909;43.644;-79.438;2022-09-20T19:31:57;0.63;;;0.60;;
33579;SDS011;19909;43.644;-79.438;2022-09-20T19:34:26;0.70;;;0.60;;
33579;SDS011;19909;43.644;-79.438;2022-09-20T19:37:06;0.70;;;0.52;;
33579;SDS011;19909;43.644;-79.438;2022-09-20T19:48:01;1.40;;;0.68;;
33579;SDS011;19909;43.644;-79.438;2022-09-20T19:50:52;1.60;;;0.80;;
33579;SDS011;19909;43.644;-79.438;2022-09-20T19:53:19;0.98;;;0.70;;
33579;SDS011;19909;43.644;-79.438;2022-09-20T19:55:56;0.75;;;0.75;;
33579;SDS011;19909;43.644;-79.438;2022-09-20T19:58:26;0.80;;;0.80;;
33579;SDS011;19909;43.644;-79.438;2022-09-20T20:00:52;6.93;;;1.00;;
33579;SDS011;19909;43.644;-79.438;2022-09-20T20:03:19;1.30;;;0.93;;
33579;SDS011;19909;43.644;-79.438;2022-09-20T20:05:51;1.00;;;0.90;;
33579;SDS011;19909;43.644;-79.438;2022-09-20T20:11:38;1.00;;;0.90;;
33579;SDS011;19909;43.644;-79.438;2022-09-20T20:14:16;2.83;;;1.00;;
33579;SDS011;19909;43.644;-79.438;2022-09-20T20:22:29;0.75;;;0.70;;
33579;SDS011;19909;43.644;-79.438;2022-09-20T20:25:15;1.02;;;0.70;;
33579;SDS011;19909;43.644;-79.438;2022-09-20T20:28:02;1.10;;;0.90;;
33579;SDS011;19909;43.644;-79.438;2022-09-20T20:30:28;0.73;;;0.70;;
33579;SDS011;19909;43.644;-79.438;2022-09-20T20:32:55;1.10;;;1.00;;
33579;SDS011;19909;43.644;-79.438;2022-09-20T20:35:22;2.65;;;1.00;;
33579;SDS011;19909;43.644;-79.438;2022-09-20T20:37:50;1.60;;;0.93;;
33579;SDS011;19909;43.644;-79.438;2022-09-20T20:40:16;0.95;;;0.85;;
33579;SDS011;19909;43.644;-79.438;2022-09-20T20:42:43;2.13;;;1.05;;
33579;SDS011;19909;43.644;-79.438;2022-09-20T20:45:10;1.58;;;0.80;;
33579;SDS011;19909;43.644;-79.438;2022-09-20T20:47:37;0.90;;;0.80;;
33579;SDS011;19909;43.644;-79.438;2022-09-20T20:50:08;1.10;;;1.00;;
33579;SDS011;19909;43.644;-79.438;2022-09-20T20:52:37;0.80;;;0.80;;
33579;SDS011;19909;43.644;-79.438;2022-09-20T20:55:04;1.83;;;1.20;;
33579;SDS011;19909;43.644;-79.438;2022-09-20T20:57:30;1.73;;;1.00;;
33579;SDS011;19909;43.644;-79.438;2022-09-20T20:59:56;1.40;;;1.10;;
33579;SDS011;19909;43.644;-79.438;2022-09-20T21:02:22;1.60;;;1.00;;
33579;SDS011;19909;43.644;-79.438;2022-09-20T21:04:49;1.15;;;0.90;;
33579;SDS011;19909;43.644;-79.438;2022-09-20T21:07:15;0.75;;;0.70;;
33579;SDS011;19909;43.644;-79.438;2022-09-20T21:09:42;2.88;;;1.10;;
33579;SDS011;19909;43.644;-79.438;2022-09-20T21:12:08;1.30;;;1.00;;